CPZ6 weather

Montreal / Point Zero Helipad
Montreal, Quebec, Canada

Public forecast

Using degrees Celsius for public forecast. Weather courtesy of forecast.io.

Closest aviation weather report (METAR) to Montreal / Point Zero Helipad

Closest report is Montreal / Pierre Elliott Trudeau International Airport, 5.0 nm (9.2 km) SW. Retrieved 2019/11/19 19:25 UTC (6 minutes ago):

CYUL 191925Z 30004KT 4SM R24L/5000VP6000FT/D -SN BR FEW007 BKN015 OVC030 00/M01 A2982 RMK SF2SC4SC2 SLP102

Closest aviation forecast (TAF) to Montreal / Point Zero Helipad

Closest forecast is Montreal / Pierre Elliott Trudeau International Airport, 5.0 nm (9.2 km) SW. Retrieved 2019/11/19 21:42 UTC (0 seconds ago):

TAF CYUL 192038Z 1921/2018 VRB03KT 3SM -SN BR BKN009 OVC015 TEMPO 1921/1922 6SM -SN SCT009 BKN015 OVC040 FM192200 VRB03KT 5SM -SN BKN012 OVC030 TEMPO 1922/2002 P6SM NSW SCT012 OVC030 FM200200 VRB03KT P6SM -SN BKN015 OVC030 FM200900 30005KT 4SM -SN OVC020 PROB40 2009/2012 2SM -FZDZ -SN BR SCT006 OVC020 FM201200 30005KT 2SM -SN -FZDZ BR SCT007 OVC015 FM201700 27005KT 21/2SM -SN SCT008 OVC015 RMK NXT FCST BY 200000Z